Latest Weather Observations for Sellicks Hill

IDS60901

Issued at 10:11 pm CDT Sunday 11 December 2016 (issued every 10 minutes, with the page automatically refreshed every 10 minutes)

About weather observations | Map of Adelaide area stations | Latest observations for Adelaide area | Other Formats
Station Details ID: 023886 Name: MOUNT TERRIBLE RADAR Lat: -35.33 Lon: 138.50 Height: 385.7 m
Data from the previous 72 hours. | See also: Recent months for locations in South Australia
Date/Time
CDT
Temp
°C
App
Temp
°C
Dew
Point
°C
Rel
Hum
%
Delta-T
°C
Wind Press
QNH
hPa
Press
MSL
hPa
Rain since
9am
mm
Dir  Spd
km/h
Gust
km/h
Spd
kts
Gust
kts
11/10:00pm - - - - - SE 22 26 12 14 - - -
11/09:30pm - - - - - SE 20 26 11 14 - - -
11/09:00pm - - - - - SE 22 28 12 15 - - -
11/08:30pm - - - - - SE 22 28 12 15 - - -
11/08:00pm - - - - - SE 22 24 12 13 - - -
11/07:30pm - - - - - SE 20 24 11 13 - - -
11/07:00pm - - - - - SE 19 24 10 13 - - -
11/06:30pm - - - - - SSE 17 20 9 11 - - -
11/06:00pm - - - - - SSE 19 22 10 12 - - -
11/05:30pm - - - - - W 4 9 2 5 - - -
11/05:00pm - - - - - WNW 6 11 3 6 - - -
11/04:30pm - - - - - NW 6 13 3 7 - - -
11/04:00pm - - - - - NW 6 13 3 7 - - -
11/03:30pm - - - - - NNW 6 13 3 7 - - -
11/03:00pm - - - - - NNW 7 15 4 8 - - -
11/02:30pm - - - - - NNW 6 13 3 7 - - -
11/02:00pm - - - - - NNW 9 17 5 9 - - -
11/01:30pm - - - - - NNE 7 11 4 6 - - -
11/01:00pm - - - - - ENE 6 15 3 8 - - -
11/12:30pm - - - - - ENE 9 24 5 13 - - -
11/12:00pm - - - - - ESE 11 20 6 11 - - -
11/11:30am - - - - - ESE 11 15 6 8 - - -
11/11:00am - - - - - E 13 19 7 10 - - -
11/10:30am - - - - - ESE 17 26 9 14 - - -
11/10:00am - - - - - ESE 19 28 10 15 - - -
11/09:30am - - - - - ESE 20 30 11 16 - - -
11/09:00am - - - - - ESE 22 32 12 17 - - -
11/08:30am - - - - - ESE 24 39 13 21 - - -
11/08:00am - - - - - ESE 22 35 12 19 - - -
11/07:30am - - - - - ESE 26 37 14 20 - - -
11/07:00am - - - - - ESE 26 39 14 21 - - -
11/06:30am - - - - - ESE 26 41 14 22 - - -
11/06:00am - - - - - ESE 28 39 15 21 - - -
11/05:30am - - - - - ESE 28 41 15 22 - - -
11/05:00am - - - - - ESE 30 39 16 21 - - -
11/04:30am - - - - - SE 32 41 17 22 - - -
11/04:00am - - - - - SE 30 41 16 22 - - -
11/03:30am - - - - - SE 30 39 16 21 - - -
11/03:00am - - - - - SE 30 41 16 22 - - -
11/02:30am - - - - - SE 35 43 19 23 - - -
11/02:00am - - - - - SE 35 44 19 24 - - -
11/01:30am - - - - - SE 35 43 19 23 - - -
11/01:00am - - - - - SE 37 46 20 25 - - -
11/12:30am - - - - - SE 39 46 21 25 - - -
11/12:00am - - - - - SE 41 46 22 25 - - -
 
Date/Time
CDT
Temp
°C
App
Temp
°C
Dew
Point
°C
Rel
Hum
%
Delta-T
°C
Wind Press
QNH
hPa
Press
MSL
hPa
Rain since
9am
mm
Dir  Spd
km/h
Gust
km/h
Spd
kts
Gust
kts
10/11:30pm - - - - - SE 41 50 22 27 - - -
10/11:00pm - - - - - SE 39 46 21 25 - - -
10/10:30pm - - - - - SE 39 44 21 24 - - -
10/10:00pm - - - - - SE 37 41 20 22 - - -
10/09:30pm - - - - - SE 37 43 20 23 - - -
10/09:00pm - - - - - SE 37 43 20 23 - - -
10/08:30pm - - - - - SSE 39 46 21 25 - - -
10/08:00pm - - - - - SSE 41 48 22 26 - - -
10/07:30pm - - - - - SSE 39 46 21 25 - - -
10/07:00pm - - - - - SSE 39 44 21 24 - - -
10/06:30pm - - - - - SSE 35 43 19 23 - - -
10/06:00pm - - - - - SSE 35 41 19 22 - - -
10/05:30pm - - - - - SSE 32 37 17 20 - - -
10/05:00pm - - - - - SSE 28 32 15 17 - - -
10/04:30pm - - - - - SSE 22 30 12 16 - - -
10/04:00pm - - - - - SSE 19 28 10 15 - - -
10/03:30pm - - - - - WNW 7 11 4 6 - - -
10/03:00pm - - - - - WNW 7 13 4 7 - - -
10/02:30pm - - - - - W 6 15 3 8 - - -
10/02:00pm - - - - - WNW 9 15 5 8 - - -
10/01:30pm - - - - - W 7 15 4 8 - - -
10/01:00pm - - - - - W 7 17 4 9 - - -
10/12:30pm - - - - - W 7 17 4 9 - - -
10/12:00pm - - - - - WNW 6 13 3 7 - - -
10/11:30am - - - - - WNW 7 13 4 7 - - -
10/11:00am - - - - - N 6 11 3 6 - - -
10/10:30am - - - - - NW 6 11 3 6 - - -
10/10:00am - - - - - NNW 4 6 2 3 - - -
10/09:30am - - - - - ENE 7 15 4 8 - - -
10/09:00am - - - - - ENE 11 20 6 11 - - -
10/08:30am - - - - - E 19 28 10 15 - - -
10/08:00am - - - - - ESE 17 22 9 12 - - -
10/07:30am - - - - - E 17 28 9 15 - - -
10/07:00am - - - - - E 17 26 9 14 - - -
10/06:30am - - - - - ESE 19 30 10 16 - - -
10/06:00am - - - - - ESE 17 22 9 12 - - -
10/05:30am - - - - - ESE 19 26 10 14 - - -
10/05:00am - - - - - ESE 17 22 9 12 - - -
10/04:30am - - - - - SE 19 24 10 13 - - -
10/04:00am - - - - - SE 19 24 10 13 - - -
10/03:30am - - - - - SE 22 28 12 15 - - -
10/03:00am - - - - - SE 22 28 12 15 - - -
10/02:30am - - - - - SE 24 30 13 16 - - -
10/02:00am - - - - - SE 22 30 12 16 - - -
10/01:30am - - - - - SSE 22 30 12 16 - - -
10/01:00am - - - - - SE 26 32 14 17 - - -
10/12:30am - - - - - SE 20 28 11 15 - - -
10/12:00am - - - - - SE 22 30 12 16 - - -
 
Date/Time
CDT
Temp
°C
App
Temp
°C
Dew
Point
°C
Rel
Hum
%
Delta-T
°C
Wind Press
QNH
hPa
Press
MSL
hPa
Rain since
9am
mm
Dir  Spd
km/h
Gust
km/h
Spd
kts
Gust
kts
09/11:30pm - - - - - SSE 26 32 14 17 - - -
09/11:00pm - - - - - SSE 28 32 15 17 - - -
09/10:30pm - - - - - SSE 26 32 14 17 - - -
09/10:00pm - - - - - SSE 28 33 15 18 - - -
09/09:30pm - - - - - SSE 26 32 14 17 - - -
09/09:00pm - - - - - SSE 24 33 13 18 - - -
09/08:30pm - - - - - SSE 30 37 16 20 - - -
09/08:00pm - - - - - SSE 32 39 17 21 - - -
09/07:30pm - - - - - SSE 32 39 17 21 - - -
09/07:00pm - - - - - SSE 30 37 16 20 - - -
09/06:30pm - - - - - SSE 33 43 18 23 - - -
09/06:00pm - - - - - SSE 28 37 15 20 - - -
09/05:30pm - - - - - SSE 28 37 15 20 - - -
09/05:00pm - - - - - SSE 28 37 15 20 - - -
09/04:30pm - - - - - S 19 30 10 16 - - -
09/04:00pm - - - - - S 15 28 8 15 - - -
09/03:30pm - - - - - S 19 30 10 16 - - -
09/03:00pm - - - - - S 13 30 7 16 - - -
09/02:30pm - - - - - S 13 24 7 13 - - -
09/02:00pm - - - - - S 13 26 7 14 - - -
09/01:30pm - - - - - S 13 28 7 15 - - -
09/01:00pm - - - - - SSE 20 33 11 18 - - -
09/12:30pm - - - - - S 17 30 9 16 - - -
09/12:00pm - - - - - S 15 26 8 14 - - -
09/11:30am - - - - - SSW 7 17 4 9 - - -
09/11:00am - - - - - SSE 15 22 8 12 - - -
09/10:30am - - - - - SSE 15 22 8 12 - - -
09/10:00am - - - - - SSW 11 22 6 12 - - -
09/09:30am - - - - - S 13 22 7 12 - - -
09/09:00am - - - - - S 19 24 10 13 - - -
09/08:30am - - - - - S 15 32 8 17 - - -
09/08:00am - - - - - SSW 7 15 4 8 - - -
09/07:30am - - - - - S 9 15 5 8 - - -
09/07:00am - - - - - S 13 17 7 9 - - -
09/06:30am - - - - - S 11 17 6 9 - - -
09/06:00am - - - - - SSW 7 13 4 7 - - -
09/05:30am - - - - - SSW 6 9 3 5 - - -
09/05:00am - - - - - SSW 7 15 4 8 - - -
09/04:30am - - - - - SSW 7 15 4 8 - - -
09/04:00am - - - - - SSW 6 9 3 5 - - -
09/03:30am - - - - - SSW 6 7 3 4 - - -
09/03:00am - - - - - SSW 11 24 6 13 - - -
09/02:30am - - - - - SSW 7 17 4 9 - - -
09/02:00am - - - - - SSW 7 17 4 9 - - -
09/01:30am - - - - - SSW 9 15 5 8 - - -
09/01:00am - - - - - SSW 11 20 6 11 - - -
09/12:30am - - - - - SSW 11 22 6 12 - - -
09/12:00am - - - - - SSW 11 20 6 11 - - -
 
Date/Time
CDT
Temp
°C
App
Temp
°C
Dew
Point
°C
Rel
Hum
%
Delta-T
°C
Wind Press
QNH
hPa
Press
MSL
hPa
Rain since
9am
mm
Dir  Spd
km/h
Gust
km/h
Spd
kts
Gust
kts
08/11:30pm - - - - - SSW 13 26 7 14 - - -
08/11:00pm - - - - - SSW 19 35 10 19 - - -
08/10:30pm - - - - - SSW 9 17 5 9 - - -

Latest Capital City Observations: Canberra | Sydney | Melbourne | Brisbane | Adelaide | Perth | Hobart | Darwin

Other Formats:

Comma delimited format used in spreadsheet applications
http://www.bom.gov.au/fwo/IDS60901/IDS60901.95679.axf

JavaScript Object Notation format (JSON) in row-major order
http://www.bom.gov.au/fwo/IDS60901/IDS60901.95679.json